Parc Van Scoy, Puerto Rico
Current Conditions -  °F | °C
As of 7:56 AM on Saturday 22 Nov 2014 (Local Time) from TJSJ Reporting Station
Moderate Rain Moderate Rain  
Wind Chill: 76°   Ceiling: 1100
Heat Index: 76°   Visibility: 2mi
Dew Point: 75°   Wind: 13mph
Humidity: 97%   Direction: 100°E
Pressure: 30.03"   Gusts: 18mph
Location:  18.1783°N, 66.1111°W
Report Text: TJSJ 221156Z 10011G16KT 2SM RA BR OVC011 24/24 A3003 RMK AO2 RAB16E26B46 SLP168 P0016 60027 70111 T02440239 10250 20239 53021
Loading
Personal Weather Stations






























Interactive Weather Map New forecast layout! Learn more

10-Day Weather Forecast

Advertisements
Track Severe Weather on mobile